createdAt,value
2018-08-27T00:00:01.035Z,1.17
2018-08-27T00:02:28.247Z,1.10
2018-08-27T00:04:55.397Z,1.40
2018-08-27T00:07:22.591Z,1.20
2018-08-27T00:09:49.787Z,1.10
2018-08-27T00:12:16.954Z,1.30
2018-08-27T00:14:44.142Z,1.17
2018-08-27T00:17:11.342Z,1.40
2018-08-27T00:19:38.544Z,1.23
2018-08-27T00:22:05.968Z,1.20
2018-08-27T00:24:33.139Z,1.10
2018-08-27T00:27:00.334Z,1.37
2018-08-27T00:29:27.524Z,1.20
2018-08-27T00:31:54.710Z,1.20
2018-08-27T00:34:21.909Z,1.60
2018-08-27T00:36:49.122Z,1.33
2018-08-27T00:39:16.318Z,1.07
2018-08-27T00:41:43.493Z,1.47
2018-08-27T00:44:10.666Z,1.20
2018-08-27T00:46:37.841Z,1.40
2018-08-27T00:49:05.128Z,1.10
2018-08-27T00:51:32.323Z,1.20
2018-08-27T00:53:59.503Z,1.20
2018-08-27T00:56:26.708Z,1.30
2018-08-27T00:58:53.866Z,1.80
2018-08-27T01:01:21.054Z,1.23
2018-08-27T01:03:48.216Z,1.20
2018-08-27T01:06:15.411Z,1.30
2018-08-27T01:08:42.587Z,1.10
2018-08-27T01:11:09.752Z,1.30
2018-08-27T01:13:36.970Z,1.20
2018-08-27T01:16:04.143Z,1.30
2018-08-27T01:18:31.339Z,1.20
2018-08-27T01:20:58.507Z,1.30
2018-08-27T01:23:25.723Z,1.50
2018-08-27T01:25:52.890Z,1.63
2018-08-27T01:28:20.075Z,1.33
2018-08-27T01:30:47.274Z,1.20
2018-08-27T01:33:14.442Z,1.10
2018-08-27T01:35:41.658Z,1.20
2018-08-27T01:38:08.844Z,1.10
2018-08-27T01:40:36.035Z,1.03
2018-08-27T01:43:03.203Z,1.23
2018-08-27T01:45:30.411Z,1.30
2018-08-27T01:47:57.611Z,1.33
2018-08-27T01:50:24.798Z,1.10
2018-08-27T01:52:52.050Z,1.10
2018-08-27T01:55:19.243Z,1.00
2018-08-27T01:57:46.422Z,1.13
2018-08-27T02:00:13.637Z,1.47
2018-08-27T02:02:41.300Z,1.30
2018-08-27T02:05:08.640Z,1.60
2018-08-27T02:07:35.978Z,1.13
2018-08-27T02:10:03.268Z,1.20
2018-08-27T02:12:31.470Z,1.20
2018-08-27T02:14:58.635Z,1.30
2018-08-27T02:17:25.796Z,1.50
2018-08-27T02:19:52.993Z,1.50
2018-08-27T02:22:20.160Z,1.13
2018-08-27T02:24:47.349Z,1.07
2018-08-27T02:27:14.585Z,1.40
2018-08-27T02:29:41.774Z,1.30
2018-08-27T02:32:08.969Z,1.30
2018-08-27T02:34:36.138Z,1.60
2018-08-27T02:37:03.362Z,1.40
2018-08-27T02:39:30.525Z,1.00
2018-08-27T02:41:57.753Z,1.40
2018-08-27T02:44:24.927Z,1.00
2018-08-27T02:46:52.150Z,1.30
2018-08-27T02:49:19.318Z,1.20
2018-08-27T02:51:46.534Z,1.37
2018-08-27T02:54:13.739Z,1.20
2018-08-27T02:56:40.939Z,1.20
2018-08-27T02:59:08.139Z,1.20
2018-08-27T03:01:35.322Z,1.17
2018-08-27T03:04:02.577Z,1.30
2018-08-27T03:06:29.797Z,1.40
2018-08-27T03:08:56.972Z,1.30
2018-08-27T03:11:24.193Z,1.20
2018-08-27T03:13:51.391Z,1.50
2018-08-27T03:16:18.792Z,1.20
2018-08-27T03:18:46.168Z,1.30
2018-08-27T03:21:13.345Z,1.30
2018-08-27T03:23:40.513Z,1.60
2018-08-27T03:26:07.711Z,1.87
2018-08-27T03:28:34.887Z,1.30
2018-08-27T03:31:02.079Z,1.50
2018-08-27T03:33:29.242Z,1.50
2018-08-27T03:35:56.465Z,1.33
2018-08-27T03:38:23.674Z,1.13
2018-08-27T03:40:50.969Z,1.40
2018-08-27T03:43:18.070Z,1.57
2018-08-27T03:45:45.278Z,1.50
2018-08-27T03:48:12.451Z,1.60
2018-08-27T03:50:39.642Z,1.23
2018-08-27T03:53:06.811Z,1.60
2018-08-27T03:55:33.999Z,1.27
2018-08-27T03:58:01.170Z,1.30
2018-08-27T04:00:28.378Z,1.20
2018-08-27T04:02:55.597Z,1.40
2018-08-27T04:05:23.041Z,1.20
2018-08-27T04:07:50.163Z,1.37
2018-08-27T04:10:17.648Z,1.50
2018-08-27T04:12:44.844Z,1.40
2018-08-27T04:15:12.016Z,1.50
2018-08-27T04:17:39.188Z,1.30
2018-08-27T04:20:06.412Z,1.47
2018-08-27T04:22:33.571Z,1.50
2018-08-27T04:25:00.767Z,1.30
2018-08-27T04:27:28.012Z,1.50
2018-08-27T04:29:55.247Z,1.53
2018-08-27T04:32:23.063Z,1.40
2018-08-27T04:34:50.626Z,1.30
2018-08-27T04:37:18.090Z,1.10
2018-08-27T04:39:45.254Z,1.20
2018-08-27T04:42:12.464Z,1.17
2018-08-27T04:44:39.624Z,1.73
2018-08-27T04:47:06.849Z,1.43
2018-08-27T04:49:33.990Z,1.30
2018-08-27T04:52:01.199Z,1.27
2018-08-27T04:54:28.363Z,1.70
2018-08-27T04:56:55.528Z,1.40
2018-08-27T04:59:25.112Z,1.60
2018-08-27T05:01:52.294Z,1.33
2018-08-27T05:04:19.495Z,1.60
2018-08-27T05:06:46.657Z,1.40
2018-08-27T05:09:13.855Z,1.47
2018-08-27T05:11:41.059Z,1.53
2018-08-27T05:14:09.508Z,1.40
2018-08-27T05:16:36.719Z,1.50
2018-08-27T05:19:03.892Z,1.60
2018-08-27T05:21:31.187Z,1.30
2018-08-27T05:23:58.442Z,1.40
2018-08-27T05:26:25.706Z,1.40
2018-08-27T05:28:52.863Z,1.83
2018-08-27T05:31:20.082Z,1.60
2018-08-27T05:33:47.215Z,1.40
2018-08-27T05:36:14.611Z,1.30
2018-08-27T05:38:41.904Z,1.40
2018-08-27T05:41:09.003Z,1.20
2018-08-27T05:43:36.171Z,1.80
2018-08-27T05:46:03.347Z,1.63
2018-08-27T05:48:30.521Z,2.17
2018-08-27T05:50:57.679Z,1.63
2018-08-27T05:53:24.891Z,1.90
2018-08-27T05:55:52.196Z,1.43
2018-08-27T05:58:19.376Z,1.37
2018-08-27T06:00:46.551Z,1.57
2018-08-27T06:05:47.462Z,1.50
2018-08-27T06:08:15.022Z,1.93
2018-08-27T06:10:42.199Z,1.73
2018-08-27T06:13:09.380Z,2.20
2018-08-27T06:15:36.535Z,1.67
2018-08-27T06:18:03.710Z,1.90
2018-08-27T06:20:30.914Z,1.90
2018-08-27T06:22:58.472Z,1.70
2018-08-27T06:25:25.797Z,2.33
2018-08-27T06:27:52.954Z,1.83
2018-08-27T06:30:20.133Z,1.90
2018-08-27T06:32:47.281Z,1.40
2018-08-27T06:35:14.472Z,1.83
2018-08-27T06:37:41.655Z,1.83
2018-08-27T06:40:09.027Z,1.80
2018-08-27T06:42:36.262Z,1.97
2018-08-27T06:45:03.608Z,1.90
2018-08-27T06:47:30.802Z,2.17
2018-08-27T06:49:57.948Z,1.70
2018-08-27T06:52:25.170Z,1.93
2018-08-27T06:54:52.326Z,1.97
2018-08-27T06:57:19.514Z,2.20
2018-08-27T06:59:46.694Z,1.77
2018-08-27T07:02:13.873Z,2.10
2018-08-27T07:04:41.028Z,2.17
2018-08-27T07:07:08.214Z,2.37
2018-08-27T07:09:35.391Z,1.90
2018-08-27T07:12:02.545Z,2.20
2018-08-27T07:14:29.729Z,1.80
2018-08-27T07:16:56.902Z,2.20
2018-08-27T07:19:24.104Z,2.53
2018-08-27T07:21:51.306Z,2.60
2018-08-27T07:24:18.785Z,2.50
2018-08-27T07:26:46.023Z,2.27
2018-08-27T07:29:13.171Z,2.50
2018-08-27T07:31:40.353Z,2.60
2018-08-27T07:34:07.503Z,2.67
2018-08-27T07:36:34.762Z,2.50
2018-08-27T07:39:01.955Z,2.80
2018-08-27T07:41:29.135Z,2.97
2018-08-27T07:43:56.294Z,2.93
2018-08-27T07:46:23.484Z,2.73
2018-08-27T07:48:50.823Z,3.40
2018-08-27T07:51:18.047Z,2.70
2018-08-27T07:53:45.249Z,3.10
2018-08-27T07:56:12.388Z,2.93
2018-08-27T07:58:39.710Z,3.40
2018-08-27T08:01:06.726Z,2.97
2018-08-27T08:03:33.930Z,3.00
2018-08-27T08:06:01.144Z,2.80
2018-08-27T08:08:28.333Z,3.37
2018-08-27T08:10:55.521Z,3.00
2018-08-27T08:13:22.782Z,2.50
2018-08-27T08:15:49.956Z,3.50
2018-08-27T08:18:18.552Z,3.33
2018-08-27T08:20:45.907Z,3.23
2018-08-27T08:23:13.577Z,2.83
2018-08-27T08:25:40.746Z,3.30
2018-08-27T08:28:08.078Z,3.47
2018-08-27T08:30:35.242Z,2.67
2018-08-27T08:33:02.474Z,2.60
2018-08-27T08:35:36.108Z,3.20
2018-08-27T08:38:03.331Z,3.37
2018-08-27T08:40:30.482Z,3.50
2018-08-27T08:42:57.685Z,3.13
2018-08-27T08:45:24.874Z,3.17
2018-08-27T08:47:52.220Z,3.20
2018-08-27T08:50:19.705Z,3.20
2018-08-27T08:52:46.883Z,3.10
2018-08-27T08:55:14.081Z,3.17
2018-08-27T08:57:41.316Z,2.87
2018-08-27T09:00:08.518Z,2.90
2018-08-27T09:02:35.707Z,3.07
2018-08-27T09:05:02.870Z,3.67
2018-08-27T09:07:30.055Z,3.30
2018-08-27T09:09:57.211Z,3.03
2018-08-27T09:12:24.383Z,3.50
2018-08-27T09:14:51.539Z,3.53
2018-08-27T09:17:18.734Z,3.20
2018-08-27T09:19:45.970Z,3.53
2018-08-27T09:22:13.334Z,3.60
2018-08-27T09:24:40.480Z,3.80
2018-08-27T09:27:07.631Z,3.20
2018-08-27T09:29:34.808Z,3.67
2018-08-27T09:32:02.007Z,3.80
2018-08-27T09:34:29.155Z,3.17
2018-08-27T09:36:56.405Z,3.50
2018-08-27T09:39:23.538Z,3.97
2018-08-27T09:41:50.731Z,3.83
2018-08-27T09:44:17.890Z,3.83
2018-08-27T09:46:45.110Z,3.60
2018-08-27T09:49:12.287Z,2.83
2018-08-27T09:51:39.478Z,3.70
2018-08-27T09:54:06.655Z,3.70
2018-08-27T09:56:33.878Z,3.83
2018-08-27T09:59:01.317Z,3.83
2018-08-27T10:01:33.577Z,3.23
2018-08-27T10:04:00.730Z,3.20
2018-08-27T10:06:27.919Z,3.90
2018-08-27T10:08:55.144Z,3.37
2018-08-27T10:11:22.272Z,3.60
2018-08-27T10:13:49.454Z,3.53
2018-08-27T10:16:16.672Z,3.80
2018-08-27T10:18:43.818Z,3.63
2018-08-27T10:21:10.995Z,3.77
2018-08-27T10:23:38.196Z,4.33
2018-08-27T10:26:05.397Z,3.30
2018-08-27T10:28:32.550Z,3.57
2018-08-27T10:30:59.840Z,3.40
2018-08-27T10:33:27.039Z,3.00
2018-08-27T10:35:54.239Z,3.00
2018-08-27T10:38:21.479Z,3.07
2018-08-27T10:40:48.734Z,3.00
2018-08-27T10:43:15.900Z,2.87
2018-08-27T10:45:43.071Z,3.40
2018-08-27T10:48:10.243Z,3.33
2018-08-27T10:50:37.399Z,3.47
2018-08-27T10:53:04.587Z,3.30
2018-08-27T10:55:31.746Z,3.00
2018-08-27T10:57:58.938Z,2.63
2018-08-27T11:00:26.097Z,3.20
2018-08-27T11:02:53.247Z,3.17
2018-08-27T11:05:20.429Z,2.80
2018-08-27T11:07:52.826Z,3.03
2018-08-27T11:10:20.241Z,2.77
2018-08-27T11:12:47.747Z,3.57
2018-08-27T11:15:15.354Z,3.10
2018-08-27T11:17:42.535Z,3.27
2018-08-27T11:20:09.795Z,3.03
2018-08-27T11:22:36.893Z,3.50
2018-08-27T11:25:04.074Z,2.87
2018-08-27T11:27:31.261Z,2.93
2018-08-27T11:29:58.437Z,2.57
2018-08-27T11:32:25.588Z,2.90
2018-08-27T11:34:52.775Z,2.47
2018-08-27T11:37:19.933Z,3.20
2018-08-27T11:39:47.102Z,2.87
2018-08-27T11:42:14.294Z,3.10
2018-08-27T11:44:41.451Z,2.90
2018-08-27T11:47:08.626Z,2.70
2018-08-27T11:49:35.806Z,2.73
2018-08-27T11:52:02.967Z,3.47
2018-08-27T11:54:30.250Z,3.00
2018-08-27T11:56:57.448Z,3.40
2018-08-27T11:59:24.758Z,3.50
2018-08-27T12:01:52.974Z,3.47
2018-08-27T12:04:20.306Z,3.20
2018-08-27T12:06:47.483Z,3.17
2018-08-27T12:09:17.275Z,2.90
2018-08-27T12:11:44.470Z,2.80
2018-08-27T12:14:11.633Z,2.70
2018-08-27T12:16:38.800Z,2.50
2018-08-27T12:19:05.986Z,2.90
2018-08-27T12:21:33.175Z,2.40
2018-08-27T12:24:00.367Z,2.70
2018-08-27T12:26:27.540Z,2.87
2018-08-27T12:28:54.694Z,2.50
2018-08-27T12:31:21.874Z,3.33
2018-08-27T12:33:49.052Z,3.13
2018-08-27T12:36:16.272Z,2.80
2018-08-27T12:38:43.453Z,3.43
2018-08-27T12:41:10.733Z,2.60
2018-08-27T12:43:37.857Z,2.57
2018-08-27T12:46:05.255Z,2.90
2018-08-27T12:48:32.422Z,3.73
2018-08-27T12:50:59.696Z,3.13
2018-08-27T12:53:26.793Z,3.20
2018-08-27T12:55:54.231Z,3.47
2018-08-27T12:58:21.466Z,2.70
2018-08-27T13:00:48.641Z,3.47
2018-08-27T13:03:15.822Z,2.40
2018-08-27T13:05:43.012Z,2.60
2018-08-27T13:08:10.277Z,2.50
2018-08-27T13:10:37.359Z,2.50
2018-08-27T13:13:04.572Z,2.60
2018-08-27T13:15:31.735Z,2.40
2018-08-27T13:17:58.938Z,2.40
2018-08-27T13:20:26.102Z,2.60
2018-08-27T13:22:53.275Z,2.20
2018-08-27T13:25:20.463Z,2.87
2018-08-27T13:27:47.622Z,3.00
2018-08-27T13:30:14.882Z,2.80
2018-08-27T13:32:41.999Z,3.30
2018-08-27T13:35:09.198Z,3.27
2018-08-27T13:37:36.359Z,2.60
2018-08-27T13:40:04.383Z,3.07
2018-08-27T13:42:31.578Z,3.20
2018-08-27T13:44:58.757Z,3.03
2018-08-27T13:47:25.960Z,3.03
2018-08-27T13:49:53.123Z,3.30
2018-08-27T13:52:20.289Z,2.90
2018-08-27T13:54:47.502Z,3.30
2018-08-27T13:57:14.682Z,3.10
2018-08-27T13:59:41.875Z,2.80
2018-08-27T14:02:09.060Z,3.03
2018-08-27T14:04:36.215Z,3.20
2018-08-27T14:07:03.417Z,3.20
2018-08-27T14:09:30.579Z,2.90
2018-08-27T14:11:57.751Z,3.93
2018-08-27T14:14:24.955Z,3.00
2018-08-27T14:16:52.127Z,3.10
2018-08-27T14:19:19.330Z,3.40
2018-08-27T14:21:46.534Z,4.17
2018-08-27T14:24:13.695Z,3.70
2018-08-27T14:26:40.898Z,3.80
2018-08-27T14:29:08.074Z,3.67
2018-08-27T14:31:35.313Z,3.87
2018-08-27T14:34:02.496Z,4.00
2018-08-27T14:36:29.654Z,3.60
2018-08-27T14:38:57.030Z,3.90
2018-08-27T14:41:24.078Z,3.40
2018-08-27T14:43:51.219Z,4.53
2018-08-27T14:46:18.407Z,3.80
2018-08-27T14:48:45.578Z,4.03
2018-08-27T14:51:12.759Z,4.00
2018-08-27T14:53:39.938Z,4.27
2018-08-27T14:56:07.174Z,4.00
2018-08-27T14:58:34.291Z,3.73
2018-08-27T15:01:06.471Z,3.87
2018-08-27T15:03:33.621Z,3.80
2018-08-27T15:06:00.810Z,4.83
2018-08-27T15:08:27.965Z,4.50
2018-08-27T15:10:55.185Z,3.90
2018-08-27T15:13:22.334Z,4.27
2018-08-27T15:15:49.530Z,4.40
2018-08-27T15:18:16.872Z,3.93
2018-08-27T15:20:44.146Z,4.83
2018-08-27T15:23:11.303Z,4.30
2018-08-27T15:25:38.876Z,4.27
2018-08-27T15:28:06.196Z,4.90
2018-08-27T15:30:33.432Z,4.30
2018-08-27T15:33:00.564Z,4.23
2018-08-27T15:35:27.742Z,3.53
2018-08-27T15:37:54.944Z,5.17
2018-08-27T15:40:22.103Z,4.50
2018-08-27T15:42:49.263Z,4.73
2018-08-27T15:45:16.544Z,5.00
2018-08-27T15:47:45.325Z,4.60
2018-08-27T15:50:14.755Z,4.37
2018-08-27T15:52:45.716Z,4.43
2018-08-27T15:55:13.037Z,4.90
2018-08-27T15:57:40.240Z,4.50
2018-08-27T16:00:08.167Z,4.00
2018-08-27T16:02:36.272Z,4.80
2018-08-27T16:05:09.175Z,5.33
2018-08-27T16:07:36.477Z,4.77
2018-08-27T16:10:09.388Z,4.13
2018-08-27T16:12:36.701Z,4.43
2018-08-27T16:15:07.644Z,4.47
2018-08-27T16:17:34.799Z,5.03
2018-08-27T16:20:01.984Z,5.10
2018-08-27T16:22:32.739Z,5.60
2018-08-27T16:24:59.947Z,5.30
2018-08-27T16:27:31.446Z,5.10
2018-08-27T16:29:58.657Z,4.97
2018-08-27T16:32:26.047Z,5.47
2018-08-27T16:34:53.263Z,5.67
2018-08-27T16:37:20.450Z,5.70
2018-08-27T16:39:47.713Z,5.33
2018-08-27T16:42:14.906Z,5.50
2018-08-27T16:44:42.059Z,6.13
2018-08-27T16:47:09.261Z,5.90
2018-08-27T16:49:36.423Z,5.37
2018-08-27T16:52:04.327Z,6.20
2018-08-27T16:54:31.558Z,5.23
2018-08-27T16:56:58.734Z,6.00
2018-08-27T16:59:25.887Z,5.60
2018-08-27T17:01:53.063Z,6.67
2018-08-27T17:04:23.274Z,5.60
2018-08-27T17:06:50.451Z,6.23
2018-08-27T17:09:17.606Z,6.13
2018-08-27T17:11:47.704Z,6.20
2018-08-27T17:14:18.710Z,5.73
2018-08-27T17:16:46.524Z,6.63
2018-08-27T17:19:13.731Z,6.53
2018-08-27T17:21:41.065Z,7.00
2018-08-27T17:24:08.228Z,7.30
2018-08-27T17:26:35.398Z,6.40
2018-08-27T17:29:02.556Z,6.63
2018-08-27T17:31:29.736Z,6.77
2018-08-27T17:33:56.901Z,6.63
2018-08-27T17:36:24.084Z,7.50
2018-08-27T17:38:51.239Z,6.10
2018-08-27T17:41:18.418Z,6.70
2018-08-27T17:43:45.591Z,6.17
2018-08-27T17:46:12.783Z,6.60
2018-08-27T17:48:39.931Z,6.00
2018-08-27T17:51:07.119Z,6.47
2018-08-27T17:53:34.278Z,6.20
2018-08-27T17:56:01.455Z,5.70
2018-08-27T17:58:28.624Z,6.10
2018-08-27T18:00:55.786Z,6.20
2018-08-27T18:03:22.992Z,6.43
2018-08-27T18:05:50.533Z,6.20
2018-08-27T18:08:17.935Z,5.40
2018-08-27T18:10:45.712Z,5.37
2018-08-27T18:13:12.896Z,5.40
2018-08-27T18:15:43.003Z,5.10
2018-08-27T18:18:10.230Z,5.10
2018-08-27T18:20:37.402Z,4.87
2018-08-27T18:23:04.614Z,5.30
2018-08-27T18:25:31.838Z,4.80
2018-08-27T18:27:59.030Z,4.50
2018-08-27T18:30:26.198Z,4.83
2018-08-27T18:32:53.379Z,4.50
2018-08-27T18:35:20.557Z,4.50
2018-08-27T18:37:47.836Z,4.97
2018-08-27T18:40:16.281Z,4.67
2018-08-27T18:42:44.146Z,4.40
2018-08-27T18:45:11.616Z,4.57
2018-08-27T18:47:39.026Z,4.17
2018-08-27T18:50:06.308Z,3.70
2018-08-27T18:52:33.865Z,3.70
2018-08-27T18:55:01.779Z,4.17
2018-08-27T18:57:29.115Z,3.70
2018-08-27T18:59:56.422Z,3.53
2018-08-27T19:02:23.619Z,3.93
2018-08-27T19:04:53.578Z,3.77
2018-08-27T19:07:20.983Z,3.93
2018-08-27T19:09:48.143Z,4.10
2018-08-27T19:12:15.572Z,3.97
2018-08-27T19:14:42.699Z,4.20
2018-08-27T19:17:10.145Z,3.33
2018-08-27T19:20:13.074Z,3.47
2018-08-27T19:22:40.654Z,3.90
2018-08-27T19:25:07.806Z,3.70
2018-08-27T19:27:34.976Z,3.97
2018-08-27T19:30:02.132Z,4.03
2018-08-27T19:32:29.354Z,3.83
2018-08-27T19:34:56.502Z,3.83
2018-08-27T19:37:23.838Z,3.60
2018-08-27T19:39:50.830Z,4.20
2018-08-27T19:42:18.003Z,4.07
2018-08-27T19:44:45.183Z,4.10
2018-08-27T19:47:12.326Z,3.33
2018-08-27T19:49:39.504Z,4.17
2018-08-27T19:52:06.664Z,3.80
2018-08-27T19:54:33.842Z,4.20
2018-08-27T19:57:01.000Z,4.50
2018-08-27T19:59:28.174Z,4.77
2018-08-27T20:01:55.326Z,4.30
2018-08-27T20:04:22.664Z,4.67
2018-08-27T20:06:49.823Z,4.10
2018-08-27T20:09:17.006Z,4.30
2018-08-27T20:11:44.414Z,4.30
2018-08-27T20:14:11.591Z,4.30
2018-08-27T20:16:38.880Z,4.13
2018-08-27T20:19:06.086Z,4.50
2018-08-27T20:21:33.235Z,4.30
2018-08-27T20:24:00.408Z,4.43
2018-08-27T20:26:27.564Z,4.47
2018-08-27T20:28:54.744Z,3.57
2018-08-27T20:31:22.026Z,4.53
2018-08-27T20:33:49.201Z,4.70
2018-08-27T20:36:16.359Z,3.77
2018-08-27T20:38:43.541Z,4.43
2018-08-27T20:41:10.693Z,4.70
2018-08-27T20:43:37.883Z,4.07
2018-08-27T20:46:05.134Z,4.47
2018-08-27T20:48:32.311Z,4.43
2018-08-27T20:50:59.554Z,5.00
2018-08-27T20:53:26.652Z,5.43
2018-08-27T20:55:53.807Z,4.73
2018-08-27T20:58:20.990Z,4.60
2018-08-27T21:00:48.147Z,5.27
2018-08-27T21:03:15.326Z,5.00
2018-08-27T21:05:42.509Z,4.87
2018-08-27T21:08:09.683Z,5.00
2018-08-27T21:10:36.874Z,5.57
2018-08-27T21:13:04.036Z,5.27
2018-08-27T21:15:31.174Z,4.63
2018-08-27T21:17:58.349Z,5.43
2018-08-27T21:20:25.503Z,4.83
2018-08-27T21:22:53.627Z,5.60
2018-08-27T21:25:20.747Z,5.13
2018-08-27T21:27:49.057Z,5.80
2018-08-27T21:30:20.526Z,5.20
2018-08-27T21:32:47.672Z,5.57
2018-08-27T21:35:14.846Z,4.57
2018-08-27T21:37:42.047Z,5.60
2018-08-27T21:40:09.233Z,5.67
2018-08-27T21:42:36.382Z,5.37
2018-08-27T21:45:03.567Z,5.73
2018-08-27T21:47:30.771Z,5.10
2018-08-27T21:49:57.977Z,5.37
2018-08-27T21:52:25.119Z,5.40
2018-08-27T21:54:52.316Z,5.80
2018-08-27T21:57:19.465Z,5.00
2018-08-27T21:59:46.635Z,5.57
2018-08-27T22:02:19.623Z,5.67
2018-08-27T22:04:46.791Z,5.70
2018-08-27T22:07:13.955Z,5.97
2018-08-27T22:09:41.151Z,5.40
2018-08-27T22:12:08.309Z,5.53
2018-08-27T22:14:36.323Z,5.60
2018-08-27T22:17:03.905Z,5.27
2018-08-27T22:19:31.079Z,5.80
2018-08-27T22:21:58.377Z,5.43
2018-08-27T22:24:25.539Z,6.53
2018-08-27T22:26:52.737Z,5.67
2018-08-27T22:29:20.287Z,6.20
2018-08-27T22:31:47.451Z,6.20
2018-08-27T22:34:15.284Z,6.07
2018-08-27T22:36:42.571Z,6.50
2018-08-27T22:39:09.890Z,5.20
2018-08-27T22:41:37.983Z,5.70
2018-08-27T22:44:05.176Z,6.03
2018-08-27T22:46:32.328Z,6.70
2018-08-27T22:48:59.491Z,5.70
2018-08-27T22:51:26.911Z,5.93
2018-08-27T22:53:54.163Z,5.77
2018-08-27T22:56:21.302Z,5.53
2018-08-27T22:58:48.470Z,5.33
2018-08-27T23:01:15.858Z,5.30
2018-08-27T23:03:48.681Z,6.20
2018-08-27T23:06:16.078Z,5.20
2018-08-27T23:08:43.214Z,5.80
2018-08-27T23:11:11.237Z,5.30
2018-08-27T23:13:38.441Z,5.50
2018-08-27T23:16:11.425Z,5.00
2018-08-27T23:18:38.614Z,5.00
2018-08-27T23:21:05.799Z,5.33
2018-08-27T23:23:33.903Z,5.67
2018-08-27T23:26:02.072Z,4.90
2018-08-27T23:28:29.206Z,6.40
2018-08-27T23:30:56.384Z,5.40
2018-08-27T23:33:23.530Z,5.60
2018-08-27T23:35:50.785Z,5.90
2018-08-27T23:38:17.940Z,5.83
2018-08-27T23:40:45.107Z,4.63
2018-08-27T23:43:12.259Z,6.57
2018-08-27T23:45:39.446Z,6.23
2018-08-27T23:48:06.609Z,5.50
2018-08-27T23:50:33.778Z,5.40
2018-08-27T23:53:00.930Z,5.33
2018-08-27T23:55:28.114Z,6.13
2018-08-27T23:57:55.277Z,6.47
